Time;durP1;ratioP1;P1;durP2;ratioP2;P2;SDS_P1;SDS_P2;PMS_P1;PMS_P2;Temp;Humidity;BMP_temperature;BMP_pressure;BME280_temperature;BME280_humidity;BME280_pressure;Samples;Min_cycle;Max_cycle;Signal;HPM_P1;HPM_P2
2022/06/17 00:00:46;;;;;;;4.90;2.47;;;;;;;15.09;63.65;100715.73;2155261;81;27673;-63
2022/06/17 00:03:49;;;;;;;6.25;2.10;;;;;;;15.03;63.83;100712.94;2201215;80;29628;-64
2022/06/17 00:06:58;;;;;;;6.53;2.60;;;;;;;15.00;63.90;100709.95;2200859;80;31697;-63
2022/06/17 00:10:00;;;;;;;4.97;2.35;;;;;;;14.98;63.82;100709.64;2200721;80;32958;-63
2022/06/17 00:13:02;;;;;;;5.50;2.10;;;;;;;14.96;63.98;100716.49;2155777;82;30533;-64
2022/06/17 00:16:11;;;;;;;3.27;2.20;;;;;;;14.96;63.98;100717.84;2201031;80;27754;-64
2022/06/17 00:19:13;;;;;;;5.30;2.33;;;;;;;14.95;64.06;100728.25;2151765;82;28649;-61
2022/06/17 00:22:15;;;;;;;4.55;2.22;;;;;;;14.94;64.24;100730.55;2107893;84;32317;-63
2022/06/17 00:25:25;;;;;;;4.60;2.87;;;;;;;14.94;64.25;100736.45;2107743;84;34374;-61
2022/06/17 00:28:28;;;;;;;3.70;1.90;;;;;;;14.92;64.26;100739.71;2106766;84;30095;-62
2022/06/17 00:31:30;;;;;;;2.87;2.00;;;;;;;14.88;64.39;100735.84;2107937;84;27742;-62
2022/06/17 00:34:32;;;;;;;3.52;2.25;;;;;;;14.85;64.44;100734.68;2107770;84;29661;-63
2022/06/17 00:37:34;;;;;;;3.87;2.17;;;;;;;14.80;64.53;100731.87;2107991;84;31014;-65
2022/06/17 00:40:37;;;;;;;5.37;2.10;;;;;;;14.76;64.58;100737.95;2108258;84;33305;-63
2022/06/17 00:43:40;;;;;;;7.20;2.30;;;;;;;14.73;64.53;100742.17;2108094;84;30137;-65
2022/06/17 00:46:47;;;;;;;4.05;2.02;;;;;;;14.69;64.65;100743.30;2108177;84;27759;-62
2022/06/17 00:49:54;;;;;;;5.80;2.60;;;;;;;14.67;64.78;100750.58;2108013;84;29725;-63
2022/06/17 00:53:24;;;;;;;4.80;2.05;;;;;;;14.63;64.93;100748.56;2108189;84;31293;-62
2022/06/17 00:56:31;;;;;;;7.62;2.58;;;;;;;14.58;65.02;100742.09;2108020;84;32984;-62
2022/06/17 00:59:35;;;;;;;4.10;2.20;;;;;;;14.58;65.13;100744.80;2108110;83;29335;-62
2022/06/17 01:02:42;;;;;;;6.40;2.27;;;;;;;14.57;65.10;100746.22;2108407;84;27796;-62
2022/06/17 01:05:50;;;;;;;3.00;2.25;;;;;;;14.55;65.29;100744.12;2099831;84;30737;-61
2022/06/17 01:12:19;;;;;;;4.75;2.17;;;;;;;14.47;65.33;100747.27;2107731;84;33207;-62
2022/06/17 01:15:25;;;;;;;4.03;2.25;;;;;;;14.42;65.36;100751.55;2108142;84;30032;-63
2022/06/17 01:18:29;;;;;;;4.67;2.83;;;;;;;14.39;65.55;100754.45;2109634;84;27697;-62
2022/06/17 01:21:42;;;;;;;6.55;2.35;;;;;;;14.35;65.60;100754.23;2151269;82;29567;-63
2022/06/17 01:24:46;;;;;;;6.95;2.33;;;;;;;14.32;65.80;100753.53;2150027;82;32282;-62
2022/06/17 01:27:55;;;;;;;3.02;2.20;;;;;;;14.26;66.15;100752.06;2151332;82;33025;-62
2022/06/17 01:30:58;;;;;;;3.55;2.12;;;;;;;14.21;66.31;100750.98;2151160;82;30260;-62
2022/06/17 01:34:01;;;;;;;6.12;2.20;;;;;;;14.16;66.32;100758.45;2151548;82;27725;-62
2022/06/17 01:37:08;;;;;;;4.78;2.67;;;;;;;14.09;66.52;100757.94;2151352;82;28839;-64
2022/06/17 01:40:12;;;;;;;3.35;2.50;;;;;;;14.02;66.68;100761.08;2151352;82;31068;-62
2022/06/17 01:43:17;;;;;;;10.50;2.20;;;;;;;13.94;66.94;100765.09;2151293;82;33114;-62
2022/06/17 01:46:29;;;;;;;3.52;2.12;;;;;;;13.87;66.98;100762.83;2151438;82;29359;-64
2022/06/17 01:49:42;;;;;;;4.15;2.15;;;;;;;13.77;67.12;100762.47;2120248;82;27739;-63
2022/06/17 01:53:01;;;;;;;5.22;2.42;;;;;;;13.68;67.17;100767.39;2150989;82;29914;-67
2022/06/17 01:56:07;;;;;;;3.47;1.90;;;;;;;13.59;67.40;100766.57;2151196;80;31047;-63
2022/06/17 01:59:18;;;;;;;4.35;2.20;;;;;;;13.48;67.43;100765.80;2150884;81;34631;-65
2022/06/17 02:02:21;;;;;;;5.70;2.77;;;;;;;13.40;67.58;100766.72;2151535;82;30492;-63
2022/06/17 02:05:25;;;;;;;3.35;2.58;;;;;;;13.30;67.86;100764.96;2151539;82;27645;-66
2022/06/17 02:08:27;;;;;;;7.80;2.85;;;;;;;13.21;67.91;100766.32;2151243;82;29664;-63
2022/06/17 02:11:30;;;;;;;5.62;2.85;;;;;;;13.13;68.08;100767.19;2150811;82;31879;-64
2022/06/17 02:14:34;;;;;;;5.90;2.52;;;;;;;13.05;68.03;100765.39;2120050;82;34174;-67
2022/06/17 02:17:41;;;;;;;9.87;3.07;;;;;;;12.97;68.25;100768.94;2151756;82;29047;-64
2022/06/17 02:20:43;;;;;;;4.50;2.50;;;;;;;12.90;68.35;100771.08;2150645;81;27681;-63
2022/06/17 02:23:45;;;;;;;7.05;2.40;;;;;;;12.83;68.50;100775.03;2162660;81;29357;-63
2022/06/17 02:26:48;;;;;;;6.00;3.25;;;;;;;12.75;68.62;100775.42;2185906;81;31857;-62
2022/06/17 02:29:51;;;;;;;2.50;2.10;;;;;;;12.69;68.86;100776.61;2186245;81;34144;-63
2022/06/17 02:32:57;;;;;;;5.53;2.40;;;;;;;12.61;68.92;100779.69;2186415;81;29952;-65
2022/06/17 02:36:12;;;;;;;4.15;2.60;;;;;;;12.56;68.92;100786.25;2186479;81;27660;-66
2022/06/17 02:39:18;;;;;;;8.40;2.75;;;;;;;12.49;69.06;100778.11;2186221;81;28818;-63
2022/06/17 02:42:26;;;;;;;5.47;2.85;;;;;;;12.43;69.25;100785.98;2186046;79;31924;-62
2022/06/17 02:45:33;;;;;;;3.70;2.75;;;;;;;12.36;69.34;100787.25;2186300;81;33774;-63
2022/06/17 02:48:53;;;;;;;5.78;2.30;;;;;;;12.29;69.52;100790.22;2128244;83;27674;-62
2022/06/17 02:51:56;;;;;;;4.92;2.58;;;;;;;12.24;69.75;100791.40;2112831;84;27700;-62
2022/06/17 02:55:02;;;;;;;6.30;2.85;;;;;;;12.18;69.84;100797.95;2150904;82;29210;-61
2022/06/17 02:58:24;;;;;;;6.95;2.37;;;;;;;12.13;70.04;100787.89;2185817;81;31255;-62
2022/06/17 03:01:28;;;;;;;3.62;2.65;;;;;;;12.10;70.23;100802.34;2179442;81;33163;-62
2022/06/17 03:04:32;;;;;;;19.48;2.92;;;;;;;12.07;70.43;100809.20;2179518;81;29259;-62
2022/06/17 03:07:35;;;;;;;5.72;3.10;;;;;;;12.07;70.56;100823.11;2179792;81;27849;-63
2022/06/17 03:10:41;;;;;;;3.00;2.70;;;;;;;12.06;70.72;100819.54;2204485;80;28648;-63
2022/06/17 03:14:01;;;;;;;4.25;3.20;;;;;;;12.06;70.83;100824.05;2179422;81;31095;-63
2022/06/17 03:17:12;;;;;;;7.20;3.17;;;;;;;12.08;71.04;100828.89;2064262;85;29549;-63
2022/06/17 03:20:25;;;;;;;4.53;3.40;;;;;;;12.09;71.21;100835.97;2073444;84;29390;-63
2022/06/17 03:23:33;;;;;;;4.45;3.58;;;;;;;12.11;71.30;100839.00;2077227;85;28306;-63
2022/06/17 03:26:43;;;;;;;6.37;2.87;;;;;;;12.15;71.36;100846.44;2077238;85;29131;-64
2022/06/17 03:29:48;;;;;;;4.72;2.87;;;;;;;12.20;71.39;100848.89;2076871;85;31242;-63
2022/06/17 03:32:59;;;;;;;9.90;3.47;;;;;;;12.23;71.47;100844.27;2076892;85;29531;-63
2022/06/17 03:36:12;;;;;;;7.50;3.65;;;;;;;12.29;71.51;100853.36;2076129;85;30764;-61
2022/06/17 03:39:25;;;;;;;6.62;3.02;;;;;;;12.36;71.52;100854.41;2076488;85;27791;-62
2022/06/17 03:42:35;;;;;;;9.83;3.17;;;;;;;12.43;71.74;100856.73;2058805;85;28687;-62
2022/06/17 03:45:48;;;;;;;7.72;3.10;;;;;;;12.51;71.81;100868.45;2077754;84;32224;-62
2022/06/17 03:49:07;;;;;;;9.63;3.70;;;;;;;12.59;71.58;100870.77;2077534;85;33756;-63
2022/06/17 03:52:17;;;;;;;4.62;2.92;;;;;;;12.66;71.51;100869.50;2077679;85;29412;-62
2022/06/17 03:55:20;;;;;;;3.08;2.52;;;;;;;12.75;71.45;100877.13;2077325;85;27787;-62
2022/06/17 03:58:24;;;;;;;4.53;3.42;;;;;;;12.83;71.39;100879.44;2077466;85;28723;-62
2022/06/17 04:01:42;;;;;;;13.53;9.45;;;;;;;12.91;71.40;100882.59;2077491;85;30562;-62
2022/06/17 04:04:50;;;;;;;7.78;3.40;;;;;;;13.02;71.35;100894.16;2077371;85;33003;-63
2022/06/17 04:07:56;;;;;;;4.87;2.65;;;;;;;13.11;71.17;100890.63;2077592;85;29555;-62
2022/06/17 04:10:59;;;;;;;6.70;2.35;;;;;;;13.22;71.06;100890.48;2070963;80;27757;-63
2022/06/17 04:14:05;;;;;;;3.77;2.50;;;;;;;13.34;71.06;100894.33;2199687;80;29864;-62
2022/06/17 04:17:23;;;;;;;6.08;3.33;;;;;;;13.46;71.04;100889.31;2199539;80;28534;-63
2022/06/17 04:20:57;;;;;;;7.20;2.52;;;;;;;13.56;70.83;100891.05;2178118;80;32911;-63
2022/06/17 04:23:59;;;;;;;5.70;2.70;;;;;;;13.67;70.76;100900.77;2173598;81;30548;-64
2022/06/17 04:27:05;;;;;;;8.58;3.10;;;;;;;13.76;70.44;100894.87;2173950;81;27693;-64
2022/06/17 04:30:09;;;;;;;4.30;2.50;;;;;;;13.85;70.16;100898.91;2174182;81;29682;-62
2022/06/17 04:33:21;;;;;;;4.72;2.55;;;;;;;13.96;70.13;100897.87;2172161;81;31029;-63
2022/06/17 04:36:28;;;;;;;6.00;2.33;;;;;;;14.11;70.03;100896.63;2173439;81;33845;-64
2022/06/17 04:39:37;;;;;;;3.75;2.40;;;;;;;14.32;69.64;100896.38;2174015;81;30113;-63
2022/06/17 04:42:41;;;;;;;6.70;2.15;;;;;;;14.51;69.39;100890.34;2166407;81;28131;-64
2022/06/17 04:46:02;;;;;;;3.80;2.10;;;;;;;14.72;69.31;100895.05;2198655;80;27697;-63
2022/06/17 04:49:06;;;;;;;4.80;1.80;;;;;;;15.46;69.78;100898.37;2173867;81;31062;-63
2022/06/17 04:52:23;;;;;;;3.25;2.08;;;;;;;17.16;69.50;100890.30;2173872;81;32987;-63
2022/06/17 04:55:32;;;;;;;4.28;1.50;;;;;;;19.04;68.43;100888.30;2173790;80;30524;-64
2022/06/17 04:58:35;;;;;;;2.95;1.20;;;;;;;20.87;65.55;100884.74;2173891;81;27680;-61
2022/06/17 05:01:38;;;;;;;2.50;1.45;;;;;;;22.37;63.34;100885.92;2174053;81;28684;-63
2022/06/17 05:04:41;;;;;;;3.65;1.75;;;;;;;23.79;62.25;100883.71;2173531;81;31063;-61
2022/06/17 05:07:47;;;;;;;3.67;1.32;;;;;;;25.14;59.66;100893.74;2173505;81;33838;-62
2022/06/17 05:10:57;;;;;;;4.20;1.50;;;;;;;26.30;57.89;100881.37;2173968;81;28831;-62
2022/06/17 05:14:10;;;;;;;2.37;1.40;;;;;;;27.36;55.58;100877.64;2173690;80;27634;-63
2022/06/17 05:17:13;;;;;;;4.37;1.45;;;;;;;28.26;53.29;100879.89;2173558;81;29584;-63
2022/06/17 05:20:19;;;;;;;2.02;1.27;;;;;;;28.95;51.72;100883.33;2181978;81;31081;-62
2022/06/17 05:23:24;;;;;;;5.42;1.70;;;;;;;29.84;50.35;100885.49;2189914;81;32962;-64
2022/06/17 05:26:27;;;;;;;2.92;1.50;;;;;;;30.61;48.48;100875.64;2189655;81;30026;-61
2022/06/17 05:29:29;;;;;;;1.63;1.53;;;;;;;31.25;47.43;100873.98;2110713;84;27650;-61
2022/06/17 05:32:33;;;;;;;3.90;1.30;;;;;;;31.78;45.58;100876.33;2189614;81;29056;-61
2022/06/17 05:35:36;;;;;;;;;;;;;;;31.87;43.77;100875.64;2192332;81;31707;-62
2022/06/17 05:38:38;;;;;;;0.88;0.88;;;;;;;32.12;41.93;100875.13;2189582;81;33063;-61
2022/06/17 05:41:41;;;;;;;1.77;1.25;;;;;;;32.31;41.19;100879.62;2190053;81;30437;-64
2022/06/17 05:44:43;;;;;;;2.42;1.40;;;;;;;32.26;40.28;100875.58;2190046;81;27664;-61
2022/06/17 05:47:45;;;;;;;3.42;1.42;;;;;;;32.36;40.27;100871.00;2189614;81;29373;-62
2022/06/17 05:50:47;;;;;;;2.08;1.20;;;;;;;32.64;38.68;100875.61;2189994;81;31011;-62
2022/06/17 05:53:49;;;;;;;2.00;1.50;;;;;;;32.87;37.59;100875.78;2190043;81;34107;-62
2022/06/17 05:56:50;;;;;;;2.30;1.30;;;;;;;33.02;36.66;100872.28;2189874;81;29707;-61
2022/06/17 05:59:52;;;;;;;5.33;1.52;;;;;;;33.14;37.13;100874.45;2189750;81;27672;-61
2022/06/17 06:03:01;;;;;;;1.77;1.17;;;;;;;33.39;36.10;100874.70;2211118;79;29547;-61
2022/06/17 06:06:03;;;;;;;3.90;1.40;;;;;;;33.55;34.67;100872.01;2189902;79;31491;-65
2022/06/17 06:09:05;;;;;;;3.85;1.37;;;;;;;33.83;34.78;100875.09;2189519;80;34155;-63
2022/06/17 06:12:10;;;;;;;3.10;1.40;;;;;;;33.86;34.24;100868.23;2189521;81;30492;-61
2022/06/17 06:15:13;;;;;;;2.95;1.52;;;;;;;33.91;32.98;100863.75;2190187;81;27624;-63
2022/06/17 06:18:19;;;;;;;2.67;1.45;;;;;;;34.18;33.50;100861.42;2189674;81;29315;-63
2022/06/17 06:21:22;;;;;;;2.70;1.40;;;;;;;34.21;32.88;100835.41;2189532;81;30987;-62
2022/06/17 06:24:26;;;;;;;1.55;1.07;;;;;;;34.29;31.56;100861.28;2189369;81;28096;-63
2022/06/17 06:27:28;;;;;;;3.58;1.50;;;;;;;34.46;31.70;100870.00;2189560;81;29463;-63
2022/06/17 06:30:31;;;;;;;2.55;1.50;;;;;;;34.48;31.23;100874.28;2189823;81;27693;-63
2022/06/17 06:33:33;;;;;;;3.42;1.20;;;;;;;34.34;30.92;100880.92;2189801;81;29390;-63
2022/06/17 06:36:35;;;;;;;4.08;1.45;;;;;;;33.90;30.69;100880.66;2190001;81;31204;-62
2022/06/17 06:39:37;;;;;;;3.95;1.40;;;;;;;33.74;30.07;100888.88;2189515;81;33806;-64
2022/06/17 06:42:39;;;;;;;3.30;1.32;;;;;;;33.77;29.94;100892.62;2189879;81;29171;-62
2022/06/17 06:45:47;;;;;;;2.67;1.10;;;;;;;33.57;30.21;100893.48;2190124;81;27618;-62
2022/06/17 06:48:49;;;;;;;3.10;1.52;;;;;;;33.31;29.89;100892.41;2189899;81;28646;-63
2022/06/17 06:51:52;;;;;;;3.47;2.00;;;;;;;33.05;29.73;100896.52;2189913;81;32141;-62
2022/06/17 06:54:54;;;;;;;3.67;1.45;;;;;;;32.91;29.58;100905.38;2201657;79;34091;-65
2022/06/17 06:58:13;;;;;;;2.60;1.35;;;;;;;32.43;29.43;100905.18;2189452;81;30572;-65
2022/06/17 07:01:15;;;;;;;3.00;1.00;;;;;;;31.95;29.82;100905.94;2174505;81;27688;-64
2022/06/17 07:04:18;;;;;;;3.10;1.37;;;;;;;31.74;30.45;100898.56;2188847;81;28771;-63
2022/06/17 07:07:21;;;;;;;4.60;1.57;;;;;;;31.81;30.45;100906.41;2189111;81;31037;-63
2022/06/17 07:10:27;;;;;;;2.17;1.32;;;;;;;31.55;29.83;100913.08;2189398;81;32983;-63
2022/06/17 07:13:32;;;;;;;3.35;1.45;;;;;;;31.09;30.29;100911.04;2189197;81;29322;-64
2022/06/17 07:16:34;;;;;;;2.35;1.40;;;;;;;30.73;30.62;100911.92;2189441;81;27695;-63
2022/06/17 07:19:37;;;;;;;3.70;1.22;;;;;;;30.74;30.84;100914.50;2189205;80;29351;-62
2022/06/17 07:22:40;;;;;;;1.70;1.15;;;;;;;31.00;30.73;100909.47;2176976;81;31901;-64
2022/06/17 07:25:44;;;;;;;2.20;1.45;;;;;;;30.82;30.50;100912.66;2161196;81;33399;-64
2022/06/17 07:28:48;;;;;;;4.80;1.40;;;;;;;31.09;31.10;100924.87;2161226;82;29518;-64
2022/06/17 07:31:50;;;;;;;3.55;1.40;;;;;;;31.57;31.16;100924.30;2161524;82;27696;-62
2022/06/17 07:34:53;;;;;;;3.17;1.77;;;;;;;31.71;30.12;100926.66;2161777;82;29029;-62
2022/06/17 07:41:18;;;;;;;4.40;1.50;;;;;;;32.34;30.67;100934.67;2161074;82;33448;-61
2022/06/17 07:44:20;;;;;;;7.50;1.72;;;;;;;32.01;29.47;100938.95;2161230;82;28844;-62
2022/06/17 07:47:24;;;;;;;2.83;1.67;;;;;;;31.18;29.77;100940.86;2161303;82;27788;-61
2022/06/17 07:50:33;;;;;;;3.02;1.57;;;;;;;30.44;30.13;100939.42;2161622;82;28631;-61
2022/06/17 07:53:41;;;;;;;2.35;1.42;;;;;;;29.80;30.60;100936.62;2134647;82;28509;-60
2022/06/17 07:56:41;;;;;;;1.75;1.42;;;;;;;29.50;31.19;100943.46;2161004;82;34262;-60
2022/06/17 07:59:43;;;;;;;3.75;1.60;;;;;;;29.46;31.32;100944.02;2160657;82;29756;-62
2022/06/17 08:02:46;;;;;;;6.03;1.42;;;;;;;29.30;31.61;100936.19;2161311;82;28330;-61
2022/06/17 08:05:52;;;;;;;1.92;1.40;;;;;;;29.36;31.70;100929.97;2197475;80;28823;-60
2022/06/17 08:08:54;;;;;;;3.42;1.27;;;;;;;29.48;31.81;100931.74;2200375;80;31017;-63
2022/06/17 08:11:56;;;;;;;3.02;1.40;;;;;;;29.41;31.62;100933.55;2198766;79;33829;-62
2022/06/17 08:14:59;;;;;;;4.12;1.85;;;;;;;29.21;31.93;100931.75;2203442;79;30515;-63
2022/06/17 08:18:01;;;;;;;2.90;1.30;;;;;;;29.28;32.32;100931.36;2192246;81;27676;-67
2022/06/17 08:21:03;;;;;;;2.65;1.30;;;;;;;29.80;32.50;100932.48;2191006;81;29511;-68
2022/06/17 08:24:07;;;;;;;3.42;1.30;;;;;;;30.20;32.22;100932.80;2189835;81;32235;-64
2022/06/17 08:27:09;;;;;;;;;;;;;;;30.48;31.63;100941.27;2153487;82;33000;-69
2022/06/17 08:30:12;;;;;;;4.00;1.40;;;;;;;30.83;31.24;100935.13;2155286;82;30393;-64
2022/06/17 08:33:15;;;;;;;4.92;1.55;;;;;;;30.72;31.24;100940.12;2195903;81;27627;-63
2022/06/17 08:36:21;;;;;;;3.70;1.62;;;;;;;30.63;31.43;100948.17;2232702;79;29662;-68
2022/06/17 08:39:23;;;;;;;4.90;1.80;;;;;;;30.36;30.56;100944.20;2233038;79;31410;-64
2022/06/17 08:42:54;;;;;;;3.55;1.82;;;;;;;29.85;31.29;100947.13;2233278;79;32965;-62
2022/06/17 08:46:26;;;;;;;6.53;2.15;;;;;;;29.53;31.45;100950.53;2232356;79;29341;-64
2022/06/17 08:49:51;;;;;;;3.25;1.60;;;;;;;29.07;31.94;100953.58;2232543;79;28143;-66
2022/06/17 08:53:33;;;;;;;3.75;1.55;;;;;;;29.06;31.96;100953.23;2232674;79;27719;-66
2022/06/17 08:56:52;;;;;;;6.00;1.50;;;;;;;28.94;32.18;100955.58;2232627;79;32257;-70
2022/06/17 09:00:09;;;;;;;3.52;1.47;;;;;;;29.02;32.63;100950.53;2118501;84;33401;-64
2022/06/17 09:03:37;;;;;;;2.20;1.65;;;;;;;29.14;32.31;100952.86;2118474;84;29524;-64
2022/06/17 09:07:02;;;;;;;2.87;1.30;;;;;;;29.21;31.95;100946.92;2115362;84;27782;-66
2022/06/17 09:10:27;;;;;;;5.20;1.50;;;;;;;29.46;32.50;100942.11;2114374;84;28796;-65
2022/06/17 09:13:40;;;;;;;2.12;1.42;;;;;;;29.70;31.75;100952.08;2020721;87;30941;-69
2022/06/17 09:16:59;;;;;;;2.25;1.75;;;;;;;29.77;31.56;100948.07;2027791;87;32963;-69
2022/06/17 09:20:06;;;;;;;4.15;1.40;;;;;;;29.50;31.40;100961.41;2034314;86;30562;-69
2022/06/17 09:23:11;;;;;;;2.60;1.50;;;;;;;29.63;32.07;100958.53;2035082;87;28087;-65
2022/06/17 09:26:26;;;;;;;2.20;1.47;;;;;;;29.73;31.63;100945.84;2035044;87;28683;-64
2022/06/17 09:30:00;;;;;;;6.45;1.65;;;;;;;29.46;31.43;100950.39;2034970;87;31042;-66
2022/06/17 09:33:08;;;;;;;3.85;1.62;;;;;;;29.05;31.39;100955.66;1982587;89;33853;-65
2022/06/17 09:36:34;;;;;;;1.77;1.32;;;;;;;28.85;31.74;100957.19;1988521;89;29401;-68
2022/06/17 09:39:42;;;;;;;1.22;1.10;;;;;;;28.66;31.82;100962.91;1994231;89;27777;-65
2022/06/17 09:42:55;;;;;;;3.70;1.60;;;;;;;28.50;31.33;100960.22;1972588;89;28678;-64
2022/06/17 09:46:41;;;;;;;4.40;1.67;;;;;;;28.22;31.74;100962.05;1994206;89;32280;-64
2022/06/17 09:49:49;;;;;;;;;;;;;;;28.05;32.47;100961.18;2021632;86;33028;-63
2022/06/17 09:52:57;;;;;;;3.22;2.00;;;;;;;27.91;32.62;100964.15;2050772;86;29461;-67
2022/06/17 09:56:17;;;;;;;3.58;1.60;;;;;;;27.87;33.08;100963.65;2050230;86;27802;-62
2022/06/17 09:59:33;;;;;;;4.92;1.45;;;;;;;27.86;33.13;100960.55;2027164;87;29146;-64
2022/06/17 10:02:55;;;;;;;2.85;1.30;;;;;;;27.62;33.30;100960.05;1993449;89;31740;-67
2022/06/17 10:06:24;;;;;;;4.22;1.87;;;;;;;27.56;33.31;100958.83;2088189;81;33520;-70
2022/06/17 10:09:43;;;;;;;5.85;1.12;;;;;;;27.66;33.75;100960.56;2120487;82;30736;-64
2022/06/17 10:13:21;;;;;;;2.92;1.72;;;;;;;27.66;33.66;100958.66;2073449;85;27696;-64
2022/06/17 10:20:19;;;;;;;2.12;1.40;;;;;;;27.66;33.52;100944.05;2043082;87;32395;-64
2022/06/17 10:23:26;;;;;;;4.12;1.82;;;;;;;27.59;33.69;100956.27;2043216;87;33879;-65
2022/06/17 10:26:56;;;;;;;2.95;1.45;;;;;;;27.54;33.63;100954.03;2042785;87;30633;-64
2022/06/17 10:30:12;;;;;;;3.17;1.00;;;;;;;27.51;33.78;100956.25;2043306;87;27820;-65
2022/06/17 10:33:17;;;;;;;4.12;1.20;;;;;;;27.51;33.82;100951.63;2043418;87;28653;-62
2022/06/17 10:36:19;;;;;;;2.20;1.35;;;;;;;27.28;33.39;100956.91;2061852;84;31941;-61
2022/06/17 10:39:24;;;;;;;4.92;1.90;;;;;;;26.93;33.76;100957.53;2079092;85;33900;-62
2022/06/17 10:42:28;;;;;;;1.80;1.37;;;;;;;26.84;34.21;100962.14;2056400;85;29441;-63
2022/06/17 10:45:30;;;;;;;2.60;1.53;;;;;;;26.87;34.37;100961.81;2079524;85;28404;-64
2022/06/17 10:48:39;;;;;;;4.78;1.60;;;;;;;27.03;34.26;100956.00;2055413;85;27820;-64
2022/06/17 10:51:43;;;;;;;1.98;1.52;;;;;;;27.07;33.70;100962.87;2104032;82;30496;-69
2022/06/17 10:54:49;;;;;;;4.58;1.30;;;;;;;26.93;33.71;100962.50;2190271;81;33018;-65
2022/06/17 10:58:17;;;;;;;4.47;1.65;;;;;;;26.78;33.87;100958.64;2196142;80;29326;-66
2022/06/17 11:01:20;;;;;;;1.85;1.30;;;;;;;26.70;33.77;100953.98;2196229;81;27755;-69
2022/06/17 11:04:34;;;;;;;2.35;1.70;;;;;;;26.60;34.32;100949.14;2195966;81;28702;-67
2022/06/17 11:07:51;;;;;;;4.07;1.47;;;;;;;26.43;34.45;100950.45;2196327;80;31052;-68
2022/06/17 11:10:57;;;;;;;2.95;1.30;;;;;;;26.33;34.71;100956.55;2195995;81;33686;-70
2022/06/17 11:14:01;;;;;;;2.37;1.50;;;;;;;26.28;34.66;100945.22;2196210;81;30030;-65
2022/06/17 11:17:32;;;;;;;3.17;1.35;;;;;;;26.19;33.85;100941.04;2196207;81;27736;-68
2022/06/17 11:20:38;;;;;;;4.53;1.50;;;;;;;26.08;34.51;100939.92;2194271;81;29080;-66
2022/06/17 11:23:44;;;;;;;5.33;2.00;;;;;;;25.90;34.88;100938.09;2180039;80;30970;-66
2022/06/17 11:27:09;;;;;;;3.10;1.87;;;;;;;25.90;35.03;100942.22;2195072;81;33418;-66
2022/06/17 11:30:27;;;;;;;4.37;1.85;;;;;;;25.89;35.25;100933.62;2194582;81;29378;-65
2022/06/17 11:33:40;;;;;;;1.72;1.37;;;;;;;25.96;35.22;100934.36;2118884;83;27706;-66
2022/06/17 11:37:18;;;;;;;5.47;1.77;;;;;;;25.99;35.27;100944.50;2192352;81;29466;-66
2022/06/17 11:40:26;;;;;;;4.35;1.57;;;;;;;26.01;34.70;100948.45;2186429;81;31080;-66
2022/06/17 11:43:43;;;;;;;2.65;1.32;;;;;;;25.96;35.00;100937.95;2166049;81;32970;-66
2022/06/17 11:46:59;;;;;;;3.42;1.95;;;;;;;26.02;35.31;100938.70;2191503;81;29365;-65
2022/06/17 11:50:12;;;;;;;6.20;1.45;;;;;;;25.99;34.69;100930.78;2191995;81;27795;-66
2022/06/17 11:53:17;;;;;;;3.20;1.30;;;;;;;26.01;35.47;100938.84;2186726;79;28660;-66
2022/06/17 11:56:39;;;;;;;1.82;1.57;;;;;;;26.05;35.23;100935.63;2191339;81;31855;-67
2022/06/17 11:59:48;;;;;;;2.02;1.30;;;;;;;26.05;35.24;100942.50;2191625;81;34208;-65
2022/06/17 12:02:57;;;;;;;2.27;1.47;;;;;;;26.11;35.53;100930.03;2192024;81;29454;-66
2022/06/17 12:06:06;;;;;;;3.05;1.62;;;;;;;26.28;35.28;100937.83;2192375;81;27731;-66
2022/06/17 12:09:35;;;;;;;4.28;1.20;;;;;;;26.37;35.21;100932.73;2192051;81;28683;-66
2022/06/17 12:12:38;;;;;;;4.37;1.40;;;;;;;26.46;34.86;100925.89;2191663;81;32324;-66
2022/06/17 12:16:14;;;;;;;2.95;1.55;;;;;;;26.43;34.85;100920.22;2191683;81;33730;-66
2022/06/17 12:19:20;;;;;;;1.32;1.17;;;;;;;26.46;34.02;100921.77;2192278;81;29969;-66
2022/06/17 12:22:36;;;;;;;1.27;1.17;;;;;;;26.43;34.09;100922.09;2184866;80;27646;-66
2022/06/17 12:25:52;;;;;;;1.50;1.37;;;;;;;26.45;33.48;100914.55;2171384;82;30150;-66
2022/06/17 12:29:05;;;;;;;4.30;1.25;;;;;;;26.42;34.13;100919.88;2171887;82;31047;-66
2022/06/17 12:32:47;;;;;;;5.53;1.55;;;;;;;26.38;33.82;100913.86;2108053;84;33654;-66
2022/06/17 12:35:55;;;;;;;1.65;1.20;;;;;;;26.41;34.37;100916.77;2108327;84;29338;-65
2022/06/17 12:39:17;;;;;;;2.15;1.47;;;;;;;26.59;34.47;100908.41;2145566;83;27704;-62
2022/06/17 12:42:36;;;;;;;2.55;1.40;;;;;;;26.69;34.46;100906.41;2181757;81;29915;-65
2022/06/17 12:45:46;;;;;;;5.12;1.45;;;;;;;26.75;34.02;100904.87;2109121;84;31338;-66
2022/06/17 12:53:14;;;;;;;2.75;1.45;;;;;;;26.74;33.79;100906.39;2146257;83;29518;-65
2022/06/17 12:56:37;;;;;;;25.32;4.15;;;;;;;26.56;33.55;100901.02;2181968;81;27687;-64
2022/06/17 13:00:26;;;;;;;7.37;2.30;;;;;;;26.39;33.61;100901.81;2108073;84;29993;-65
2022/06/17 13:04:09;;;;;;;2.55;1.20;;;;;;;26.39;34.05;100905.09;2171687;81;32010;-64
2022/06/17 13:07:41;;;;;;;3.58;2.12;;;;;;;26.44;33.74;100894.47;2027596;87;34199;-66
2022/06/17 13:11:17;;;;;;;2.05;1.30;;;;;;;26.44;33.32;100894.97;2027253;87;29948;-65
2022/06/17 13:14:45;;;;;;;2.62;1.30;;;;;;;26.43;33.67;100891.87;2027816;87;27787;-64
2022/06/17 13:18:07;;;;;;;1.65;1.30;;;;;;;26.38;33.29;100897.87;2027780;87;29159;-63
2022/06/17 13:21:20;;;;;;;2.58;1.20;;;;;;;26.35;33.65;100894.08;2028059;86;32109;-65
2022/06/17 13:24:47;;;;;;;1.60;1.30;;;;;;;26.35;33.29;100889.45;2045835;85;33036;-64
2022/06/17 13:28:07;;;;;;;1.82;1.40;;;;;;;26.40;33.65;100888.95;1988773;89;30151;-64
2022/06/17 13:31:20;;;;;;;5.65;1.92;;;;;;;26.43;32.88;100881.76;2027561;87;27794;-65
2022/06/17 13:34:42;;;;;;;3.33;1.60;;;;;;;26.34;33.13;100888.23;1982304;88;29428;-64
2022/06/17 13:38:20;;;;;;;1.80;1.20;;;;;;;26.26;33.31;100881.34;2047758;86;31053;-65
2022/06/17 13:41:30;;;;;;;1.82;1.20;;;;;;;26.23;33.77;100875.64;2113170;82;34213;-67
2022/06/17 13:44:52;;;;;;;1.72;1.27;;;;;;;26.19;33.36;100878.40;2153448;81;29354;-65
2022/06/17 13:48:18;;;;;;;5.70;1.40;;;;;;;26.16;33.37;100877.35;2146493;82;27744;-65
2022/06/17 13:51:45;;;;;;;5.80;1.40;;;;;;;26.11;33.01;100875.56;2144556;82;29471;-68
2022/06/17 13:55:09;;;;;;;1.65;1.25;;;;;;;26.10;33.67;100877.47;2150557;82;31976;-64
2022/06/17 13:58:45;;;;;;;1.98;1.62;;;;;;;26.21;33.57;100873.61;2150320;82;34048;-66
2022/06/17 14:01:47;;;;;;;1.82;1.65;;;;;;;26.21;33.51;100868.96;2141246;82;29324;-67
2022/06/17 14:05:06;;;;;;;2.58;1.47;;;;;;;26.13;33.52;100862.57;2150625;82;27653;-66
2022/06/17 14:08:12;;;;;;;1.95;1.60;;;;;;;26.03;33.46;100859.91;2150702;82;28658;-66
2022/06/17 14:11:34;;;;;;;1.98;1.20;;;;;;;25.98;32.77;100864.53;2150599;82;31088;-66
2022/06/17 14:14:38;;;;;;;8.78;1.60;;;;;;;25.91;33.08;100864.33;2150241;82;33020;-67
2022/06/17 14:17:52;;;;;;;3.87;1.87;;;;;;;25.83;32.89;100863.42;2150536;82;29744;-67
2022/06/17 14:21:08;;;;;;;1.83;1.30;;;;;;;25.79;33.21;100865.11;2187121;81;28192;-66
2022/06/17 14:24:35;;;;;;;3.90;1.47;;;;;;;25.83;33.77;100864.80;2186060;79;29360;-66
2022/06/17 14:27:44;;;;;;;1.45;1.20;;;;;;;25.90;33.60;100861.72;2186674;81;30615;-67
2022/06/17 14:30:48;;;;;;;1.92;1.50;;;;;;;25.90;33.70;100865.34;2186646;81;32959;-67
2022/06/17 14:33:58;;;;;;;2.17;1.50;;;;;;;25.85;33.42;100861.38;2186752;81;28841;-66
2022/06/17 14:37:04;;;;;;;6.35;2.20;;;;;;;25.75;33.15;100869.20;2186679;81;27789;-66
2022/06/17 14:40:23;;;;;;;1.55;1.37;;;;;;;25.68;33.34;100860.40;2186623;81;29064;-66
2022/06/17 14:43:25;;;;;;;3.90;1.27;;;;;;;25.62;33.08;100853.19;2186643;81;31182;-68
2022/06/17 14:46:29;;;;;;;2.45;1.52;;;;;;;25.55;32.85;100856.21;2186392;81;33012;-67
2022/06/17 14:49:57;;;;;;;2.58;1.30;;;;;;;25.53;33.00;100851.39;2176723;81;30712;-67
2022/06/17 14:53:13;;;;;;;2.58;1.85;;;;;;;25.53;32.78;100850.02;2186946;81;27798;-67
2022/06/17 14:56:33;;;;;;;2.15;1.42;;;;;;;25.54;33.07;100845.41;2173262;81;29098;-65
2022/06/17 14:59:40;;;;;;;6.37;1.80;;;;;;;25.54;33.57;100848.16;2139865;83;32595;-66
2022/06/17 15:02:45;;;;;;;2.92;1.60;;;;;;;25.46;33.29;100855.30;2141024;83;32986;-66